Time;durP1;ratioP1;P1;durP2;ratioP2;P2;SDS_P1;SDS_P2;PMS_P1;PMS_P2;Temp;Humidity;BMP_temperature;BMP_pressure;BME280_temperature;BME280_humidity;BME280_pressure;Samples;Min_cycle;Max_cycle;Signal;HPM_P1;HPM_P2
2022/11/28 00:02:07;;;;;;;;;9.33;9.33;;;;;-149.00;100.00;66333.84;5040053;28;45462;-79
2022/11/28 00:04:33;;;;;;;;;12.33;11.33;;;;;-149.00;100.00;66333.84;5040932;28;45302;-79
2022/11/28 00:06:58;;;;;;;;;8.00;8.00;;;;;-149.00;100.00;66333.84;5039350;28;48376;-79
2022/11/28 00:09:24;;;;;;;;;41.25;36.25;;;;;-149.00;100.00;66333.84;5038347;28;45432;-79
2022/11/28 00:11:49;;;;;;;;;21.67;20.33;;;;;-149.00;100.00;66333.84;5039146;28;45408;-78
2022/11/28 00:14:17;;;;;;;;;18.33;16.00;;;;;-149.00;100.00;66333.84;5040240;28;46094;-79
2022/11/28 00:16:42;;;;;;;;;11.33;11.33;;;;;-149.00;100.00;66333.84;5041540;28;46108;-78
2022/11/28 00:19:09;;;;;;;;;10.33;10.00;;;;;-149.00;100.00;66333.84;5038724;28;46079;-79
2022/11/28 00:21:34;;;;;;;;;11.00;11.00;;;;;-149.00;100.00;66333.84;5022509;28;45302;-79
2022/11/28 00:24:00;;;;;;;;;11.67;11.67;;;;;-149.00;100.00;66333.84;5040074;28;45544;-78
2022/11/28 00:26:29;;;;;;;;;14.33;12.00;;;;;-149.00;100.00;66333.84;5022393;28;46960;-79
2022/11/28 00:28:56;;;;;;;;;12.67;12.33;;;;;-149.00;100.00;66333.84;5040222;28;45348;-80
2022/11/28 00:31:24;;;;;;;;;13.00;11.33;;;;;-149.00;100.00;66333.84;5040099;28;45286;-79
2022/11/28 00:33:50;;;;;;;;;15.33;13.67;;;;;-149.00;100.00;66333.84;5040147;28;45197;-79
2022/11/28 00:36:16;;;;;;;;;13.00;12.67;;;;;-149.00;100.00;66333.84;5038614;28;47305;-79
2022/11/28 00:38:41;;;;;;;;;12.33;12.00;;;;;-149.00;100.00;66333.84;5040143;28;45521;-79
2022/11/28 00:41:10;;;;;;;;;13.33;12.67;;;;;-149.00;100.00;66333.84;5040069;28;45513;-79
2022/11/28 00:43:36;;;;;;;;;14.33;14.33;;;;;-149.00;100.00;66333.84;5039279;28;46562;-79
2022/11/28 00:46:03;;;;;;;;;11.33;11.00;;;;;-149.00;100.00;66333.84;5039622;28;45630;-79
2022/11/28 00:48:28;;;;;;;;;12.33;11.33;;;;;-149.00;100.00;66333.84;5039764;28;45344;-80
2022/11/28 00:50:54;;;;;;;;;13.00;11.33;;;;;-149.00;100.00;66333.84;5038564;28;45528;-79
2022/11/28 00:53:20;;;;;;;;;14.00;11.33;;;;;-149.00;100.00;66333.84;5039751;28;45336;-79
2022/11/28 00:55:45;;;;;;;;;14.33;12.00;;;;;-149.00;100.00;66333.84;5039679;28;45828;-79
2022/11/28 00:58:11;;;;;;;;;10.67;10.67;;;;;-149.00;100.00;66333.84;5039878;28;45294;-79
2022/11/28 01:00:36;;;;;;;;;13.67;11.00;;;;;-149.00;100.00;66333.84;5039641;28;45608;-79
2022/11/28 01:03:02;;;;;;;;;11.00;11.00;;;;;-149.00;100.00;66333.84;5039769;28;45323;-79
2022/11/28 01:05:27;;;;;;;;;11.33;11.33;;;;;-149.00;100.00;66333.84;5039358;28;45287;-79
2022/11/28 01:07:53;;;;;;;;;12.33;10.33;;;;;-149.00;100.00;66333.84;5039619;28;45422;-79
2022/11/28 01:10:18;;;;;;;;;13.67;12.67;;;;;-149.00;100.00;66333.84;5039701;28;45503;-79
2022/11/28 01:12:43;;;;;;;;;10.00;8.67;;;;;-149.00;100.00;66333.84;5039520;28;45261;-80
2022/11/28 01:15:11;;;;;;;;;14.00;14.00;;;;;-149.00;100.00;66333.84;5037914;28;47251;-80
2022/11/28 01:17:37;;;;;;;;;13.00;11.00;;;;;-149.00;100.00;66333.84;5039432;28;45316;-80
2022/11/28 01:20:05;;;;;;;;;7.67;6.33;;;;;-149.00;100.00;66333.84;5038025;28;45462;-80
2022/11/28 01:22:31;;;;;;;;;13.00;13.00;;;;;-149.00;100.00;66333.84;5039330;28;45356;-80
2022/11/28 01:24:56;;;;;;;;;14.00;12.67;;;;;-149.00;100.00;66333.84;5037922;28;47322;-81
2022/11/28 01:27:21;;;;;;;;;15.00;13.00;;;;;-149.00;100.00;66333.84;5039202;28;45221;-81
2022/11/28 01:29:47;;;;;;;;;13.00;12.00;;;;;-149.00;100.00;66333.84;5039367;28;45430;-80
2022/11/28 01:32:13;;;;;;;;;10.00;9.67;;;;;-149.00;100.00;66333.84;5039193;28;45739;-81
2022/11/28 01:34:38;;;;;;;;;13.67;13.00;;;;;-149.00;100.00;66333.84;5041012;28;45384;-81
2022/11/28 01:37:04;;;;;;;;;13.33;13.33;;;;;-149.00;100.00;66333.84;5034494;28;45323;-81
2022/11/28 01:39:31;;;;;;;;;12.00;12.00;;;;;-149.00;100.00;66333.84;5033918;28;45328;-81
2022/11/28 01:41:56;;;;;;;;;16.33;15.67;;;;;-149.00;100.00;66333.84;5037716;28;45933;-81
2022/11/28 01:44:21;;;;;;;;;13.00;13.00;;;;;-149.00;100.00;66333.84;5038695;28;49003;-81
2022/11/28 01:46:46;;;;;;;;;15.67;15.67;;;;;-149.00;100.00;66333.84;5039043;28;45289;-81
2022/11/28 01:49:35;;;;;;;;;13.00;12.67;;;;;-149.00;100.00;66333.84;5039537;28;45374;-81
2022/11/28 01:52:06;;;;;;;;;14.00;12.33;;;;;-149.00;100.00;66333.84;5038665;28;45397;-81
2022/11/28 01:54:33;;;;;;;;;13.67;12.00;;;;;-149.00;100.00;66333.84;5020765;28;47213;-81
2022/11/28 01:57:03;;;;;;;;;12.67;12.33;;;;;-149.00;100.00;66333.84;5038733;28;45419;-81
2022/11/28 01:59:37;;;;;;;;;13.00;13.00;;;;;-149.00;100.00;66333.84;5038895;28;45292;-81
2022/11/28 02:02:08;;;;;;;;;13.67;13.00;;;;;-149.00;100.00;66333.84;5038565;28;45528;-81
2022/11/28 02:04:33;;;;;;;;;15.00;14.33;;;;;-149.00;100.00;66333.84;5039065;28;46311;-81
2022/11/28 02:06:59;;;;;;;;;12.33;12.33;;;;;-149.00;100.00;66333.84;5037486;28;46097;-81
2022/11/28 02:09:24;;;;;;;;;18.67;17.33;;;;;-149.00;100.00;66333.84;5041142;28;45206;-82
2022/11/28 02:12:30;;;;;;;;;15.33;15.00;;;;;-149.00;100.00;66333.84;5039056;28;45292;-82
2022/11/28 02:15:07;;;;;;;;;17.33;16.67;;;;;-149.00;100.00;66333.84;5039379;28;45391;-81
2022/11/28 02:17:54;;;;;;;;;18.33;16.33;;;;;-149.00;100.00;66333.84;5021265;28;45335;-81
2022/11/28 02:20:57;;;;;;;;;18.67;17.67;;;;;-149.00;100.00;66333.84;5039296;28;45439;-81
2022/11/28 02:24:00;;;;;;;;;18.67;16.00;;;;;-149.00;100.00;66333.84;5039151;28;45666;-80
2022/11/28 02:26:44;;;;;;;;;19.33;16.00;;;;;-149.00;100.00;66333.84;5009888;28;48447;-81
2022/11/28 02:29:23;;;;;;;;;17.00;14.00;;;;;-149.00;100.00;66333.84;5038155;28;45343;-80
2022/11/28 02:32:16;;;;;;;;;18.33;16.67;;;;;-149.00;100.00;66333.84;5037264;28;45391;-80
2022/11/28 02:34:56;;;;;;;;;15.67;14.67;;;;;-149.00;100.00;66333.84;5023865;28;47019;-81
2022/11/28 02:37:45;;;;;;;;;16.33;15.67;;;;;-149.00;100.00;66333.84;5036938;28;47786;-80
2022/11/28 02:40:25;;;;;;;;;14.33;13.67;;;;;-149.00;100.00;66333.84;5028310;28;45591;-81
2022/11/28 02:43:36;;;;;;;;;17.33;16.67;;;;;-149.00;100.00;66333.84;5040400;28;45435;-80
2022/11/28 02:46:27;;;;;;;;;16.33;16.33;;;;;-149.00;100.00;66333.84;4960212;28;45390;-80
2022/11/28 02:48:55;;;;;;;;;21.33;19.33;;;;;-149.00;100.00;66333.84;5037349;28;47525;-80
2022/11/28 02:51:36;;;;;;;;;15.00;15.00;;;;;-149.00;100.00;66333.84;5041404;28;45375;-80
2022/11/28 02:54:06;;;;;;;;;19.00;17.00;;;;;-149.00;100.00;66333.84;5041831;28;45331;-80
2022/11/28 02:56:31;;;;;;;;;18.00;17.00;;;;;-149.00;100.00;66333.84;5041465;28;45344;-80
2022/11/28 02:58:56;;;;;;;;;20.33;18.67;;;;;-149.00;100.00;66333.84;5041534;28;46113;-80
2022/11/28 03:01:28;;;;;;;;;18.00;16.00;;;;;-149.00;100.00;66333.84;5023220;28;46471;-80
2022/11/28 03:04:15;;;;;;;;;15.67;14.00;;;;;-149.00;100.00;66333.84;5041675;28;45597;-80
2022/11/28 03:07:28;;;;;;;;;14.67;14.00;;;;;-149.00;100.00;66333.84;5039876;28;45938;-80
2022/11/28 03:10:19;;;;;;;;;16.67;15.67;;;;;-149.00;100.00;66333.84;5006003;28;47873;-80
2022/11/28 03:13:29;;;;;;;;;15.00;15.00;;;;;-149.00;100.00;66333.84;5023344;28;45427;-80
2022/11/28 03:16:09;;;;;;;;;13.33;12.33;;;;;-149.00;100.00;66333.84;5041323;28;45329;-80
2022/11/28 03:18:45;;;;;;;;;14.50;14.50;;;;;-149.00;100.00;66333.84;5040971;28;45404;-80
2022/11/28 03:21:25;;;;;;;;;9.33;9.00;;;;;-149.00;100.00;66333.84;5039899;28;47292;-80
2022/11/28 03:23:58;;;;;;;;;11.67;10.33;;;;;-149.00;100.00;66333.84;5023412;28;45412;-80
2022/11/28 03:26:28;;;;;;;;;12.00;11.33;;;;;-149.00;100.00;66333.84;5041387;28;45296;-81
2022/11/28 03:29:08;;;;;;;;;11.33;11.33;;;;;-149.00;100.00;66333.84;5040790;28;45534;-80
2022/11/28 03:31:40;;;;;;;;;12.33;12.33;;;;;-149.00;100.00;66333.84;5041029;28;45439;-81
2022/11/28 03:34:09;;;;;;;;;11.00;11.00;;;;;-149.00;100.00;66333.84;5040928;28;45352;-81
2022/11/28 03:36:42;;;;;;;;;12.00;12.00;;;;;-149.00;100.00;66333.84;5041205;28;45333;-80
2022/11/28 03:39:12;;;;;;;;;9.33;9.33;;;;;-149.00;100.00;66333.84;5040780;28;45420;-80
2022/11/28 03:41:42;;;;;;;;;10.33;10.00;;;;;-149.00;100.00;66333.84;5040626;28;46757;-80
2022/11/28 03:44:17;;;;;;;;;10.00;9.33;;;;;-149.00;100.00;66333.84;5039372;28;45560;-80
2022/11/28 03:46:46;;;;;;;;;10.67;9.67;;;;;-149.00;100.00;66333.84;5023001;28;45396;-80
2022/11/28 03:49:18;;;;;;;;;10.33;9.67;;;;;-149.00;100.00;66333.84;5040804;28;45290;-80
2022/11/28 03:52:00;;;;;;;;;11.33;9.33;;;;;-149.00;100.00;66333.84;5040596;28;46338;-79
2022/11/28 03:54:39;;;;;;;;;8.67;8.67;;;;;-149.00;100.00;66333.84;5040864;28;45268;-80
2022/11/28 03:57:30;;;;;;;;;9.00;9.00;;;;;-149.00;100.00;66333.84;5040605;28;45177;-80
2022/11/28 03:59:59;;;;;;;;;9.00;8.00;;;;;-149.00;100.00;66333.84;5018334;28;46034;-79
2022/11/28 04:02:33;;;;;;;;;10.00;10.00;;;;;-149.00;100.00;66333.84;5040286;28;46039;-80
2022/11/28 04:05:16;;;;;;;;;10.33;10.33;;;;;-149.00;100.00;66333.84;5040544;28;45242;-80
2022/11/28 04:07:52;;;;;;;;;7.33;7.33;;;;;-149.00;100.00;66333.84;5040691;28;45283;-81
2022/11/28 04:10:32;;;;;;;;;10.33;10.33;;;;;-149.00;100.00;66333.84;5040173;28;45405;-81
2022/11/28 04:13:12;;;;;;;;;9.67;9.00;;;;;-149.00;100.00;66333.84;5040414;28;45473;-81
2022/11/28 04:16:01;;;;;;;;;8.33;8.33;;;;;-149.00;100.00;66333.84;5039822;28;45273;-81
2022/11/28 04:18:56;;;;;;;;;8.00;8.00;;;;;-149.00;100.00;66333.84;5022441;28;45454;-81
2022/11/28 04:21:45;;;;;;;;;9.00;8.33;;;;;-149.00;100.00;66333.84;5040324;28;45304;-81
2022/11/28 04:24:17;;;;;;;;;8.33;7.00;;;;;-149.00;100.00;66333.84;5038720;28;48634;-81
2022/11/28 04:26:58;;;;;;;;;9.33;8.67;;;;;-149.00;100.00;66333.84;5040187;28;45294;-81
2022/11/28 04:29:26;;;;;;;;;9.67;8.33;;;;;-149.00;100.00;66333.84;5038797;28;45268;-82
2022/11/28 04:31:56;;;;;;;;;9.67;8.33;;;;;-149.00;100.00;66333.84;5040050;28;45345;-82
2022/11/28 04:34:24;;;;;;;;;9.67;8.67;;;;;-149.00;100.00;66333.84;5039748;28;45402;-82
2022/11/28 04:36:52;;;;;;;;;9.67;9.00;;;;;-149.00;100.00;66333.84;5035126;28;46169;-81
2022/11/28 04:39:22;;;;;;;;;8.33;8.33;;;;;-149.00;100.00;66333.84;5015234;28;45421;-81
2022/11/28 04:41:53;;;;;;;;;10.00;9.67;;;;;-149.00;100.00;66333.84;5038334;28;47069;-81
2022/11/28 04:44:28;;;;;;;;;9.67;8.00;;;;;-149.00;100.00;66333.84;5039704;28;45457;-81
2022/11/28 04:46:56;;;;;;;;;9.67;9.33;;;;;-149.00;100.00;66333.84;5038441;28;45363;-81
2022/11/28 04:49:24;;;;;;;;;8.67;8.67;;;;;-149.00;100.00;66333.84;5040152;28;45368;-82
2022/11/28 04:51:58;;;;;;;;;12.00;10.00;;;;;-149.00;100.00;66333.84;5039358;28;45623;-81
2022/11/28 04:54:51;;;;;;;;;9.67;9.67;;;;;-149.00;100.00;66333.84;5039867;28;45316;-81
2022/11/28 04:57:24;;;;;;;;;12.00;11.33;;;;;-149.00;100.00;66333.84;5038275;28;45465;-81
2022/11/28 04:59:50;;;;;;;;;9.00;9.00;;;;;-149.00;100.00;66333.84;5039648;28;45356;-81
2022/11/28 05:02:18;;;;;;;;;12.67;12.67;;;;;-149.00;100.00;66333.84;5021600;28;47446;-81
2022/11/28 05:04:44;;;;;;;;;11.33;10.33;;;;;-149.00;100.00;66333.84;5039510;28;45585;-81
2022/11/28 05:07:09;;;;;;;;;10.00;10.00;;;;;-149.00;100.00;66333.84;5039403;28;45320;-81
2022/11/28 05:09:35;;;;;;;;;13.33;13.33;;;;;-149.00;100.00;66333.84;5039633;28;45466;-81
2022/11/28 05:12:01;;;;;;;;;13.00;13.00;;;;;-149.00;100.00;66333.84;5039587;28;45296;-80
2022/11/28 05:14:27;;;;;;;;;11.00;10.67;;;;;-149.00;100.00;66333.84;5038007;28;47241;-81
2022/11/28 05:16:52;;;;;;;;;12.33;11.33;;;;;-149.00;100.00;66333.84;5039354;28;45340;-81
2022/11/28 05:19:18;;;;;;;;;10.67;10.67;;;;;-149.00;100.00;66333.84;5039666;28;45535;-80
2022/11/28 05:21:43;;;;;;;;;13.67;13.00;;;;;-149.00;100.00;66333.84;5039380;28;45557;-80
2022/11/28 05:24:09;;;;;;;;;11.00;10.00;;;;;-149.00;100.00;66333.84;5037667;28;47357;-80
2022/11/28 05:26:34;;;;;;;;;11.33;11.33;;;;;-149.00;100.00;66333.84;5039407;28;45416;-81
2022/11/28 05:29:00;;;;;;;;;13.33;12.33;;;;;-149.00;100.00;66333.84;5037761;28;45383;-80
2022/11/28 05:31:26;;;;;;;;;10.33;10.33;;;;;-149.00;100.00;66333.84;5039177;28;45495;-80
2022/11/28 05:33:53;;;;;;;;;13.67;13.67;;;;;-149.00;100.00;66333.84;5037489;28;48261;-80
2022/11/28 05:36:18;;;;;;;;;13.00;13.00;;;;;-149.00;100.00;66333.84;5037870;28;45341;-80
2022/11/28 05:38:44;;;;;;;;;13.33;12.00;;;;;-149.00;100.00;66333.84;5033231;28;45262;-80
2022/11/28 05:41:18;;;;;;;;;14.00;13.00;;;;;-149.00;100.00;66333.84;5037659;28;47349;-80
2022/11/28 05:43:43;;;;;;;;;13.00;13.00;;;;;-149.00;100.00;66333.84;5037758;28;48200;-80
2022/11/28 05:46:09;;;;;;;;;13.33;13.33;;;;;-149.00;100.00;66333.84;5038812;28;45267;-80
2022/11/28 05:48:34;;;;;;;;;16.33;13.00;;;;;-149.00;100.00;66333.84;5021039;28;45348;-80
2022/11/28 05:51:03;;;;;;;;;15.67;15.67;;;;;-149.00;100.00;66333.84;5037576;28;46244;-80
2022/11/28 05:53:28;;;;;;;;;13.00;13.00;;;;;-149.00;100.00;66333.84;5038711;28;45392;-80
2022/11/28 05:55:53;;;;;;;;;18.00;16.33;;;;;-149.00;100.00;66333.84;5038751;28;46259;-80
2022/11/28 05:58:18;;;;;;;;;16.33;15.33;;;;;-149.00;100.00;66333.84;5038898;28;45343;-80
2022/11/28 06:00:44;;;;;;;;;15.33;12.67;;;;;-149.00;100.00;66333.84;5038426;28;50339;-80
2022/11/28 06:03:09;;;;;;;;;14.00;12.67;;;;;-149.00;100.00;66333.84;5038852;28;45332;-80
2022/11/28 06:05:38;;;;;;;;;15.33;15.00;;;;;-149.00;100.00;66333.84;5037430;28;45378;-80
2022/11/28 06:08:03;;;;;;;;;15.67;15.33;;;;;-149.00;100.00;66333.84;5039091;28;45328;-79
2022/11/28 06:10:29;;;;;;;;;15.00;15.00;;;;;-149.00;100.00;66333.84;5042060;28;45356;-80
2022/11/28 06:12:54;;;;;;;;;13.00;12.33;;;;;-149.00;100.00;66333.84;5042226;28;46213;-80
2022/11/28 06:15:20;;;;;;;;;19.00;15.33;;;;;-149.00;100.00;66333.84;5041934;28;45406;-80
2022/11/28 06:17:45;;;;;;;;;17.67;15.67;;;;;-149.00;100.00;66333.84;5024389;28;45521;-80
2022/11/28 06:20:10;;;;;;;;;16.33;16.33;;;;;-149.00;100.00;66333.84;5019987;28;46048;-81
2022/11/28 06:22:36;;;;;;;;;16.33;16.00;;;;;-149.00;100.00;66333.84;5034188;28;45422;-81
2022/11/28 06:25:01;;;;;;;;;15.67;14.33;;;;;-149.00;100.00;66333.84;5041321;28;45748;-79
2022/11/28 06:27:27;;;;;;;;;18.00;16.67;;;;;-149.00;100.00;66333.84;5042149;28;45717;-79
2022/11/28 06:29:53;;;;;;;;;19.33;19.33;;;;;-149.00;100.00;66333.84;5041936;28;45404;-79
2022/11/28 06:32:18;;;;;;;;;23.00;21.00;;;;;-149.00;100.00;66333.84;5023683;28;47174;-79
2022/11/28 06:34:43;;;;;;;;;20.67;18.00;;;;;-149.00;100.00;66333.84;5024114;28;45518;-79
2022/11/28 06:37:09;;;;;;;;;22.00;20.33;;;;;-149.00;100.00;66333.84;5037328;28;45336;-79
2022/11/28 06:39:34;;;;;;;;;17.00;15.67;;;;;-149.00;100.00;66333.84;5037130;28;45659;-79
2022/11/28 06:41:59;;;;;;;;;22.33;20.33;;;;;-149.00;100.00;66333.84;5023878;28;46985;-78
2022/11/28 06:44:25;;;;;;;;;22.67;21.67;;;;;-149.00;100.00;66333.84;5041610;28;45324;-78
2022/11/28 06:46:50;;;;;;;;;21.67;19.67;;;;;-149.00;100.00;66333.84;5041985;28;45822;-78
2022/11/28 06:49:15;;;;;;;;;20.67;19.33;;;;;-149.00;100.00;66333.84;5022553;28;46321;-78
2022/11/28 06:51:41;;;;;;;;;22.67;21.00;;;;;-149.00;100.00;66333.84;5037811;28;46102;-78
2022/11/28 06:54:07;;;;;;;;;22.67;22.33;;;;;-149.00;100.00;66333.84;5041202;28;45388;-79
2022/11/28 06:56:33;;;;;;;;;23.00;22.00;;;;;-149.00;100.00;66333.84;5041819;28;45348;-79
2022/11/28 06:58:59;;;;;;;;;26.00;22.67;;;;;-149.00;100.00;66333.84;5041327;28;45498;-79
2022/11/28 07:01:27;;;;;;;;;19.67;19.33;;;;;-149.00;100.00;66333.84;5041543;28;46482;-79
2022/11/28 07:03:55;;;;;;;;;24.00;22.00;;;;;-149.00;100.00;66333.84;5041451;28;45324;-78
2022/11/28 07:06:22;;;;;;;;;23.67;21.67;;;;;-149.00;100.00;66333.84;5041492;28;45208;-78
2022/11/28 07:08:48;;;;;;;;;23.33;22.67;;;;;-149.00;100.00;66333.84;5039977;28;46229;-78
2022/11/28 07:11:16;;;;;;;;;24.33;24.00;;;;;-149.00;100.00;66333.84;5023230;28;48095;-78
2022/11/28 07:13:44;;;;;;;;;27.00;26.00;;;;;-149.00;100.00;66333.84;5041325;28;45460;-78
2022/11/28 07:16:14;;;;;;;;;41.00;34.33;;;;;-149.00;100.00;66333.84;5041303;28;45325;-78
2022/11/28 07:18:40;;;;;;;;;43.67;37.67;;;;;-149.00;100.00;66333.84;5022893;28;46172;-78
2022/11/28 07:21:05;;;;;;;;;33.33;29.67;;;;;-149.00;100.00;66333.84;5039285;28;47240;-79
2022/11/28 07:23:31;;;;;;;;;30.00;29.67;;;;;-149.00;100.00;66333.84;5040267;28;45483;-79
2022/11/28 07:26:01;;;;;;;;;30.00;28.00;;;;;-149.00;100.00;66333.84;5040611;28;45447;-79
2022/11/28 07:28:28;;;;;;;;;29.33;27.67;;;;;-149.00;100.00;66333.84;5023076;28;47204;-78
2022/11/28 07:31:12;;;;;;;;;31.33;26.67;;;;;-149.00;100.00;66333.84;5040891;28;46270;-78
2022/11/28 07:33:39;;;;;;;;;27.67;27.00;;;;;-149.00;100.00;66333.84;5041159;28;45249;-76
2022/11/28 07:36:07;;;;;;;;;29.00;28.00;;;;;-149.00;100.00;66333.84;5040970;28;46604;-76
2022/11/28 07:38:32;;;;;;;;;29.33;24.67;;;;;-149.00;100.00;66333.84;5040842;28;45415;-77
2022/11/28 07:41:03;;;;;;;;;29.33;26.67;;;;;-149.00;100.00;66333.84;5040740;28;45370;-76
2022/11/28 07:43:28;;;;;;;;;26.67;25.33;;;;;-149.00;100.00;66333.84;5035223;28;45534;-77
2022/11/28 07:45:53;;;;;;;;;24.00;23.67;;;;;-149.00;100.00;66333.84;5040334;28;45383;-79
2022/11/28 07:48:18;;;;;;;;;27.00;23.67;;;;;-149.00;100.00;66333.84;5032294;28;45285;-77
2022/11/28 07:50:44;;;;;;;;;27.67;23.33;;;;;-149.00;100.00;66333.84;5040518;28;49837;-77
2022/11/28 07:53:10;;;;;;;;;27.00;25.67;;;;;-149.00;100.00;66333.84;5022567;28;47792;-77
2022/11/28 07:55:35;;;;;;;;;28.33;27.33;;;;;-149.00;100.00;66333.84;5040761;28;45301;-77
2022/11/28 07:58:01;;;;;;;;;30.33;25.67;;;;;-149.00;100.00;66333.84;5040766;28;45413;-78
2022/11/28 08:00:26;;;;;;;;;30.67;25.67;;;;;-149.00;100.00;66333.84;5022256;28;47169;-78
2022/11/28 08:02:52;;;;;;;;;27.67;25.00;;;;;-149.00;100.00;66333.84;5036688;28;45348;-78
2022/11/28 08:05:17;;;;;;;;;25.33;25.33;;;;;-149.00;100.00;66333.84;5040877;28;45474;-76
2022/11/28 08:07:42;;;;;;;;;24.33;24.33;;;;;-149.00;100.00;66333.84;5037001;28;47198;-77
2022/11/28 08:10:08;;;;;;;;;32.33;27.00;;;;;-149.00;100.00;66333.84;5040127;28;45375;-78
2022/11/28 08:12:33;;;;;;;;;26.00;23.00;;;;;-149.00;100.00;66333.84;5038709;28;45305;-78
2022/11/28 08:14:58;;;;;;;;;27.00;23.67;;;;;-149.00;100.00;66333.84;5038944;28;45459;-77
2022/11/28 08:17:24;;;;;;;;;23.67;21.67;;;;;-149.00;100.00;66333.84;5039289;28;47620;-77
2022/11/28 08:19:49;;;;;;;;;24.00;24.00;;;;;-149.00;100.00;66333.84;5038927;28;46292;-77
2022/11/28 08:22:14;;;;;;;;;27.00;27.00;;;;;-149.00;100.00;66333.84;5038516;28;45492;-77
2022/11/28 08:24:40;;;;;;;;;25.00;21.33;;;;;-149.00;100.00;66333.84;5040494;28;45354;-76
2022/11/28 08:27:05;;;;;;;;;26.33;25.33;;;;;-149.00;100.00;66333.84;5038682;28;47430;-76
2022/11/28 08:29:30;;;;;;;;;23.00;22.33;;;;;-149.00;100.00;66333.84;5038444;28;53951;-76
2022/11/28 08:31:56;;;;;;;;;18.33;18.33;;;;;-149.00;100.00;66333.84;5039397;28;45317;-77
2022/11/28 08:34:21;;;;;;;;;19.33;18.67;;;;;-149.00;100.00;66333.84;5022225;28;45372;-76
2022/11/28 08:36:47;;;;;;;;;22.33;21.33;;;;;-149.00;100.00;66333.84;5021800;28;46168;-77
2022/11/28 08:39:13;;;;;;;;;22.67;22.33;;;;;-149.00;100.00;66333.84;5039139;28;45415;-77
2022/11/28 08:41:38;;;;;;;;;19.67;17.00;;;;;-149.00;100.00;66333.84;5024748;28;45614;-77
2022/11/28 08:44:03;;;;;;;;;18.67;18.67;;;;;-149.00;100.00;66333.84;5035424;28;46334;-76
2022/11/28 08:46:29;;;;;;;;;20.00;19.67;;;;;-149.00;100.00;66333.84;5039743;28;45542;-76
2022/11/28 08:48:54;;;;;;;;;20.33;20.33;;;;;-149.00;100.00;66333.84;5039743;28;46102;-77
2022/11/28 08:51:25;;;;;;;;;21.67;20.67;;;;;-149.00;100.00;66333.84;5038319;28;45843;-77
2022/11/28 08:53:51;;;;;;;;;4.67;1.00;;;;;-149.00;100.00;66333.84;5033129;28;45510;-77
2022/11/28 08:56:17;;;;;;;;;22.33;22.33;;;;;-149.00;100.00;66333.84;5036064;28;45486;-79
2022/11/28 08:58:42;;;;;;;;;28.00;25.33;;;;;-149.00;100.00;66333.84;5021320;28;46963;-78
2022/11/28 09:01:24;;;;;;;;;24.33;23.67;;;;;-149.00;100.00;66333.84;5039144;28;45388;-78
2022/11/28 09:03:51;;;;;;;;;26.67;24.67;;;;;-149.00;100.00;66333.84;5039669;28;45431;-78
2022/11/28 09:06:17;;;;;;;;;23.33;22.00;;;;;-149.00;100.00;66333.84;5035317;28;45378;-79
2022/11/28 09:08:43;;;;;;;;;28.00;23.00;;;;;-149.00;100.00;66333.84;5037019;28;48125;-77
2022/11/28 09:11:11;;;;;;;;;18.00;17.00;;;;;-149.00;100.00;66333.84;5033162;28;45352;-79
2022/11/28 09:13:37;;;;;;;;;24.33;23.33;;;;;-149.00;100.00;66333.84;5038257;28;45527;-77
2022/11/28 09:16:03;;;;;;;;;25.00;24.00;;;;;-149.00;100.00;66333.84;5039026;28;45422;-77
2022/11/28 09:18:28;;;;;;;;;24.33;22.00;;;;;-149.00;100.00;66333.84;5039269;28;46243;-77
2022/11/28 09:21:02;;;;;;;;;20.67;20.67;;;;;-149.00;100.00;66333.84;5039312;28;45401;-79
2022/11/28 09:23:28;;;;;;;;;22.67;22.00;;;;;-149.00;100.00;66333.84;5021540;28;45570;-78
2022/11/28 09:25:55;;;;;;;;;21.33;21.33;;;;;-149.00;100.00;66333.84;5035385;28;45849;-79
2022/11/28 09:28:20;;;;;;;;;23.00;21.33;;;;;-149.00;100.00;66333.84;5020939;28;47413;-79
2022/11/28 09:30:45;;;;;;;;;28.00;25.00;;;;;-149.00;100.00;66333.84;5020387;28;45266;-79
2022/11/28 09:33:12;;;;;;;;;25.33;23.33;;;;;-149.00;100.00;66333.84;5021099;28;45325;-78
2022/11/28 09:35:38;;;;;;;;;24.00;22.67;;;;;-149.00;100.00;66333.84;5039478;28;45221;-77
2022/11/28 09:38:04;;;;;;;;;18.33;18.33;;;;;-149.00;100.00;66333.84;5038814;28;45330;-78
2022/11/28 09:40:35;;;;;;;;;20.33;20.33;;;;;-149.00;100.00;66333.84;5036413;28;45245;-78
2022/11/28 09:43:03;;;;;;;;;24.00;22.00;;;;;-149.00;100.00;66333.84;5038996;28;45337;-78
2022/11/28 09:45:31;;;;;;;;;23.33;23.00;;;;;-149.00;100.00;66333.84;5038830;28;45363;-79
2022/11/28 09:48:16;;;;;;;;;23.33;22.67;;;;;-149.00;100.00;66333.84;5041216;28;45341;-79
2022/11/28 09:50:43;;;;;;;;;25.67;23.00;;;;;-149.00;100.00;66333.84;5038120;28;45538;-79
2022/11/28 09:53:30;;;;;;;;;24.33;23.00;;;;;-149.00;100.00;66333.84;5039195;28;45413;-78
2022/11/28 09:56:14;;;;;;;;;19.33;19.00;;;;;-149.00;100.00;66333.84;5040361;28;45709;-79
2022/11/28 09:58:56;;;;;;;;;24.67;23.00;;;;;-149.00;100.00;66333.84;5037656;28;46051;-80
2022/11/28 10:01:50;;;;;;;;;25.00;23.33;;;;;-149.00;100.00;66333.84;5030899;28;45341;-82
2022/11/28 10:04:22;;;;;;;;;26.33;21.33;;;;;-149.00;100.00;66333.84;5027553;28;45291;-82
2022/11/28 10:06:53;;;;;;;;;20.33;19.33;;;;;-149.00;100.00;66333.84;5039469;28;46601;-81
2022/11/28 10:09:31;;;;;;;;;22.00;21.00;;;;;-149.00;100.00;66333.84;5041782;28;46344;-82
2022/11/28 10:12:09;;;;;;;;;16.00;16.00;;;;;-149.00;100.00;66333.84;5027491;28;45331;-83
2022/11/28 10:14:52;;;;;;;;;22.67;22.33;;;;;-149.00;100.00;66333.84;5022659;28;45429;-81
2022/11/28 10:17:35;;;;;;;;;20.33;19.33;;;;;-149.00;100.00;66333.84;5039194;28;45438;-83
2022/11/28 10:20:19;;;;;;;;;13.00;11.67;;;;;-149.00;100.00;66333.84;5023177;28;48296;-82
2022/11/28 10:22:59;;;;;;;;;19.67;18.67;;;;;-149.00;100.00;66333.84;5019712;28;45453;-82
2022/11/28 10:25:35;;;;;;;;;24.33;20.33;;;;;-149.00;100.00;66333.84;5020490;28;45667;-83
2022/11/28 10:28:05;;;;;;;;;20.00;19.33;;;;;-149.00;100.00;66333.84;5039033;28;45502;-84
2022/11/28 10:30:36;;;;;;;;;19.33;19.33;;;;;-149.00;100.00;66333.84;5039089;28;46749;-79
2022/11/28 10:33:23;;;;;;;;;23.33;22.67;;;;;-149.00;100.00;66333.84;5035978;28;45692;-80
2022/11/28 10:36:00;;;;;;;;;20.67;20.00;;;;;-149.00;100.00;66333.84;5037361;28;45495;-81
2022/11/28 10:38:27;;;;;;;;;20.67;20.67;;;;;-149.00;100.00;66333.84;5018383;28;47644;-85
2022/11/28 10:41:01;;;;;;;;;21.00;21.00;;;;;-149.00;100.00;66333.84;5036289;28;46535;-83
2022/11/28 10:43:30;;;;;;;;;26.33;25.00;;;;;-149.00;100.00;66333.84;5032108;28;45910;-82
2022/11/28 10:46:15;;;;;;;;;22.00;17.00;;;;;-149.00;100.00;66333.84;5037533;28;45457;-85
2022/11/28 10:49:00;;;;;;;;;20.67;19.00;;;;;-149.00;100.00;66333.84;5030446;28;45269;-82
2022/11/28 10:51:52;;;;;;;;;22.67;21.33;;;;;-149.00;100.00;66333.84;5035718;28;48114;-83
2022/11/28 10:54:17;;;;;;;;;22.67;19.00;;;;;-149.00;100.00;66333.84;5039069;28;45376;-79
2022/11/28 10:56:58;;;;;;;;;23.00;23.00;;;;;-149.00;100.00;66333.84;5041039;28;45328;-80
2022/11/28 10:59:51;;;;;;;;;24.33;22.00;;;;;-149.00;100.00;66333.84;5022983;28;46148;-81
2022/11/28 11:02:44;;;;;;;;;26.33;23.00;;;;;-149.00;100.00;66333.84;5041102;28;46119;-79
2022/11/28 11:05:18;;;;;;;;;23.00;21.00;;;;;-149.00;100.00;66333.84;5023314;28;46280;-79
2022/11/28 11:08:02;;;;;;;;;21.00;19.00;;;;;-149.00;100.00;66333.84;5041446;28;45232;-79
2022/11/28 11:10:41;;;;;;;;;17.33;17.33;;;;;-149.00;100.00;66333.84;5023531;28;46072;-81
2022/11/28 11:13:22;;;;;;;;;20.00;20.00;;;;;-149.00;100.00;66333.84;5040445;28;47370;-81